createdAt,value
2019-02-24T00:00:45.531Z,0
2019-02-24T00:01:45.505Z,0
2019-02-24T00:02:45.499Z,0
2019-02-24T00:03:45.466Z,0
2019-02-24T00:04:45.456Z,0
2019-02-24T00:05:45.423Z,0
2019-02-24T00:06:45.403Z,0
2019-02-24T00:07:45.384Z,0
2019-02-24T00:08:45.378Z,0
2019-02-24T00:09:45.343Z,0
2019-02-24T00:10:45.311Z,0
2019-02-24T00:11:45.302Z,0
2019-02-24T00:12:45.035Z,0
2019-02-24T00:13:45.268Z,0
2019-02-24T00:14:45.221Z,0
2019-02-24T00:15:45.213Z,0
2019-02-24T00:16:45.187Z,0
2019-02-24T00:17:45.184Z,0
2019-02-24T00:18:45.142Z,0
2019-02-24T00:19:45.125Z,0
2019-02-24T00:20:45.108Z,0
2019-02-24T00:21:45.092Z,0
2019-02-24T00:22:45.067Z,0
2019-02-24T00:23:45.044Z,0
2019-02-24T00:24:45.015Z,0
2019-02-24T00:25:45.000Z,0
2019-02-24T00:26:44.990Z,0
2019-02-24T00:27:45.012Z,0
2019-02-24T00:28:44.940Z,0
2019-02-24T00:29:44.915Z,0
2019-02-24T00:30:44.898Z,0
2019-02-24T00:31:45.133Z,0
2019-02-24T00:32:44.858Z,0
2019-02-24T00:33:44.914Z,0
2019-02-24T00:34:44.839Z,0
2019-02-24T00:35:44.779Z,0
2019-02-24T00:36:44.785Z,0
2019-02-24T00:37:44.744Z,0
2019-02-24T00:38:44.740Z,0
2019-02-24T00:39:44.694Z,0
2019-02-24T00:40:44.443Z,0
2019-02-24T00:41:44.642Z,0
2019-02-24T00:42:44.619Z,0
2019-02-24T00:43:44.606Z,0
2019-02-24T00:44:44.593Z,0
2019-02-24T00:45:44.578Z,0
2019-02-24T00:46:44.555Z,0
2019-02-24T00:47:44.529Z,0
2019-02-24T00:48:44.500Z,0
2019-02-24T00:49:44.536Z,0
2019-02-24T00:50:44.471Z,0
2019-02-24T00:51:44.445Z,0
2019-02-24T00:52:44.408Z,0
2019-02-24T00:53:44.397Z,0
2019-02-24T00:54:44.382Z,0
2019-02-24T00:55:44.345Z,0
2019-02-24T00:56:44.323Z,0
2019-02-24T00:57:44.305Z,0
2019-02-24T00:58:44.288Z,0
2019-02-24T00:59:44.268Z,0
2019-02-24T01:00:44.267Z,0
2019-02-24T01:01:44.215Z,0
2019-02-24T01:02:44.208Z,0
2019-02-24T01:03:44.179Z,0
2019-02-24T01:04:44.159Z,0
2019-02-24T01:05:44.121Z,0
2019-02-24T01:06:43.881Z,0
2019-02-24T01:07:44.094Z,0
2019-02-24T01:08:44.073Z,0
2019-02-24T01:09:44.027Z,0
2019-02-24T01:10:44.020Z,0
2019-02-24T01:11:44.004Z,0
2019-02-24T01:12:43.985Z,0
2019-02-24T01:13:43.977Z,0
2019-02-24T01:14:43.927Z,0
2019-02-24T01:15:43.919Z,0
2019-02-24T01:16:43.894Z,0
2019-02-24T01:17:43.881Z,0
2019-02-24T01:18:43.847Z,0
2019-02-24T01:19:43.827Z,0
2019-02-24T01:20:43.813Z,0
2019-02-24T01:21:43.794Z,0
2019-02-24T01:22:43.751Z,0
2019-02-24T01:23:43.740Z,0
2019-02-24T01:24:43.715Z,0
2019-02-24T01:25:43.712Z,0
2019-02-24T01:26:43.678Z,0
2019-02-24T01:27:43.687Z,0
2019-02-24T01:28:43.628Z,0
2019-02-24T01:29:43.608Z,0
2019-02-24T01:30:43.670Z,0
2019-02-24T01:31:43.567Z,0
2019-02-24T01:32:43.550Z,0
2019-02-24T01:33:43.528Z,0
2019-02-24T01:34:43.506Z,0
2019-02-24T01:35:43.486Z,0
2019-02-24T01:36:43.478Z,0
2019-02-24T01:37:43.428Z,0
2019-02-24T01:38:43.450Z,0
2019-02-24T01:39:43.499Z,0
2019-02-24T01:40:43.375Z,0
2019-02-24T01:41:43.340Z,0
2019-02-24T01:42:43.327Z,0
2019-02-24T01:43:43.310Z,0
2019-02-24T01:44:43.288Z,0
2019-02-24T01:45:43.262Z,0
2019-02-24T01:46:43.239Z,0
2019-02-24T01:47:43.223Z,0
2019-02-24T01:48:43.202Z,0
2019-02-24T01:49:43.187Z,0
2019-02-24T01:50:43.149Z,0
2019-02-24T01:51:43.136Z,0
2019-02-24T01:52:43.108Z,0
2019-02-24T01:53:43.105Z,0
2019-02-24T01:54:42.819Z,0
2019-02-24T01:55:43.046Z,0
2019-02-24T01:56:43.020Z,0
2019-02-24T01:57:43.045Z,0
2019-02-24T01:58:42.988Z,0
2019-02-24T01:59:42.960Z,0
2019-02-24T02:00:42.964Z,0
2019-02-24T02:01:42.914Z,0
2019-02-24T02:02:42.905Z,0
2019-02-24T02:03:42.871Z,0
2019-02-24T02:04:42.853Z,0
2019-02-24T02:05:42.823Z,0
2019-02-24T02:06:42.817Z,0
2019-02-24T02:07:42.786Z,0
2019-02-24T02:08:42.769Z,0
2019-02-24T02:09:42.728Z,0
2019-02-24T02:10:42.730Z,0
2019-02-24T02:11:42.698Z,0
2019-02-24T02:12:42.690Z,0
2019-02-24T02:13:42.640Z,0
2019-02-24T02:14:42.635Z,0
2019-02-24T02:15:42.623Z,0
2019-02-24T02:16:42.595Z,0
2019-02-24T02:17:42.566Z,0
2019-02-24T02:18:42.540Z,0
2019-02-24T02:19:42.525Z,0
2019-02-24T02:20:42.501Z,0
2019-02-24T02:21:42.492Z,0
2019-02-24T02:22:42.453Z,0
2019-02-24T02:23:42.443Z,0
2019-02-24T02:24:42.405Z,0
2019-02-24T02:25:42.411Z,0
2019-02-24T02:26:42.364Z,0
2019-02-24T02:27:42.354Z,0
2019-02-24T02:28:50.847Z,0
2019-02-24T02:29:42.328Z,0
2019-02-24T02:30:42.046Z,0
2019-02-24T02:31:42.264Z,0
2019-02-24T02:32:42.262Z,0
2019-02-24T02:33:42.221Z,0
2019-02-24T02:34:42.205Z,0
2019-02-24T02:35:42.176Z,0
2019-02-24T02:36:42.166Z,0
2019-02-24T02:37:42.120Z,0
2019-02-24T02:38:42.115Z,0
2019-02-24T02:39:42.092Z,0
2019-02-24T02:40:42.069Z,0
2019-02-24T02:41:43.748Z,0
2019-02-24T02:42:42.049Z,0
2019-02-24T02:43:42.005Z,0
2019-02-24T02:44:42.002Z,0
2019-02-24T02:45:41.945Z,0
2019-02-24T02:46:41.939Z,0
2019-02-24T02:47:41.941Z,0
2019-02-24T02:48:41.897Z,0
2019-02-24T02:49:41.646Z,0
2019-02-24T02:50:41.847Z,0
2019-02-24T02:51:41.831Z,0
2019-02-24T02:52:41.808Z,0
2019-02-24T02:53:41.567Z,0
2019-02-24T02:54:41.763Z,0
2019-02-24T02:55:41.750Z,0
2019-02-24T02:56:41.753Z,0
2019-02-24T02:57:41.702Z,0
2019-02-24T02:58:41.688Z,0
2019-02-24T02:59:41.716Z,0
2019-02-24T03:00:41.723Z,0
2019-02-24T03:01:41.600Z,0
2019-02-24T03:02:41.608Z,0
2019-02-24T03:03:41.571Z,0
2019-02-24T03:04:41.549Z,0
2019-02-24T03:05:41.544Z,0
2019-02-24T03:06:41.502Z,0
2019-02-24T03:07:41.486Z,0
2019-02-24T03:08:41.474Z,0
2019-02-24T03:09:41.458Z,0
2019-02-24T03:10:41.439Z,0
2019-02-24T03:11:41.412Z,0
2019-02-24T03:12:41.366Z,0
2019-02-24T03:13:41.356Z,0
2019-02-24T03:14:41.327Z,0
2019-02-24T03:15:41.311Z,0
2019-02-24T03:16:41.288Z,0
2019-02-24T03:17:41.283Z,0
2019-02-24T03:18:41.253Z,0
2019-02-24T03:19:41.227Z,0
2019-02-24T03:20:41.188Z,0
2019-02-24T03:21:41.174Z,0
2019-02-24T03:22:41.158Z,0
2019-02-24T03:23:41.131Z,0
2019-02-24T03:24:41.104Z,0
2019-02-24T03:25:41.086Z,0
2019-02-24T03:26:41.074Z,0
2019-02-24T03:27:41.046Z,0
2019-02-24T03:28:41.045Z,0
2019-02-24T03:29:40.996Z,0
2019-02-24T03:30:41.025Z,0
2019-02-24T03:31:40.977Z,0
2019-02-24T03:32:40.956Z,0
2019-02-24T03:33:40.931Z,0
2019-02-24T03:34:40.885Z,0
2019-02-24T03:35:40.941Z,0
2019-02-24T03:36:40.857Z,0
2019-02-24T03:37:40.583Z,0
2019-02-24T03:38:40.899Z,0
2019-02-24T03:39:40.781Z,0
2019-02-24T03:40:40.793Z,0
2019-02-24T03:41:40.745Z,0
2019-02-24T03:42:40.703Z,0
2019-02-24T03:43:40.691Z,0
2019-02-24T03:44:40.660Z,0
2019-02-24T03:45:40.692Z,0
2019-02-24T03:46:40.626Z,0
2019-02-24T03:47:40.603Z,0
2019-02-24T03:48:40.611Z,0
2019-02-24T03:49:40.581Z,0
2019-02-24T03:50:40.543Z,0
2019-02-24T03:51:40.514Z,0
2019-02-24T03:52:40.492Z,0
2019-02-24T03:53:40.474Z,0
2019-02-24T03:54:40.487Z,0
2019-02-24T03:55:40.433Z,0
2019-02-24T03:56:40.413Z,0
2019-02-24T03:57:40.381Z,0
2019-02-24T03:58:40.410Z,0
2019-02-24T03:59:40.345Z,0
2019-02-24T04:00:40.325Z,0
2019-02-24T04:01:40.294Z,0
2019-02-24T04:02:40.300Z,0
2019-02-24T04:03:40.251Z,0
2019-02-24T04:04:40.244Z,0
2019-02-24T04:05:40.211Z,0
2019-02-24T04:06:40.803Z,0
2019-02-24T04:07:40.173Z,0
2019-02-24T04:08:40.146Z,0
2019-02-24T04:09:40.157Z,0
2019-02-24T04:10:40.099Z,0
2019-02-24T04:11:40.079Z,0
2019-02-24T04:12:40.061Z,0
2019-02-24T04:13:40.062Z,0
2019-02-24T04:14:40.009Z,0
2019-02-24T04:15:40.010Z,0
2019-02-24T04:16:39.966Z,0
2019-02-24T04:17:39.957Z,0
2019-02-24T04:18:39.923Z,0
2019-02-24T04:19:39.905Z,0
2019-02-24T04:20:39.889Z,0
2019-02-24T04:21:39.880Z,0
2019-02-24T04:22:39.844Z,0
2019-02-24T04:23:39.822Z,0
2019-02-24T04:24:39.795Z,0
2019-02-24T04:25:39.778Z,0
2019-02-24T04:26:39.753Z,0
2019-02-24T04:27:39.734Z,0
2019-02-24T04:28:39.703Z,0
2019-02-24T04:29:39.681Z,0
2019-02-24T04:30:39.693Z,0
2019-02-24T04:31:39.689Z,0
2019-02-24T04:32:39.627Z,0
2019-02-24T04:33:39.582Z,0
2019-02-24T04:34:39.583Z,0
2019-02-24T04:35:39.558Z,0
2019-02-24T04:36:39.533Z,0
2019-02-24T04:37:39.645Z,0
2019-02-24T04:38:39.490Z,0
2019-02-24T04:39:39.483Z,0
2019-02-24T04:40:39.466Z,0
2019-02-24T04:41:39.427Z,0
2019-02-24T04:42:39.392Z,0
2019-02-24T04:43:39.380Z,0
2019-02-24T04:44:39.364Z,0
2019-02-24T04:45:39.358Z,0
2019-02-24T04:46:39.306Z,0
2019-02-24T04:47:39.295Z,0
2019-02-24T04:48:39.261Z,0
2019-02-24T04:49:39.261Z,0
2019-02-24T04:50:39.283Z,0
2019-02-24T04:51:39.207Z,0
2019-02-24T04:52:39.190Z,0
2019-02-24T04:53:38.930Z,0
2019-02-24T04:54:39.137Z,0
2019-02-24T04:55:39.119Z,0
2019-02-24T04:56:38.850Z,0
2019-02-24T04:57:39.103Z,0
2019-02-24T04:58:39.059Z,0
2019-02-24T04:59:42.259Z,0
2019-02-24T05:00:39.009Z,0
2019-02-24T05:01:38.995Z,0
2019-02-24T05:02:38.973Z,0
2019-02-24T05:03:38.939Z,0
2019-02-24T05:04:38.923Z,0
2019-02-24T05:05:38.882Z,0
2019-02-24T05:06:38.893Z,0
2019-02-24T05:07:38.853Z,0
2019-02-24T05:08:38.937Z,0
2019-02-24T05:09:38.836Z,0
2019-02-24T05:10:38.811Z,0
2019-02-24T05:11:38.769Z,0
2019-02-24T05:12:38.851Z,0
2019-02-24T05:13:38.729Z,0
2019-02-24T05:14:38.693Z,0
2019-02-24T05:15:38.677Z,0
2019-02-24T05:16:38.654Z,0
2019-02-24T05:17:38.848Z,0
2019-02-24T05:18:38.602Z,0
2019-02-24T05:19:38.348Z,0
2019-02-24T05:20:38.563Z,0
2019-02-24T05:21:38.555Z,0
2019-02-24T05:22:38.522Z,0
2019-02-24T05:23:38.506Z,0
2019-02-24T05:24:38.475Z,0
2019-02-24T05:25:38.472Z,0
2019-02-24T05:26:38.434Z,0
2019-02-24T05:27:38.422Z,0
2019-02-24T05:28:38.388Z,0
2019-02-24T05:29:47.556Z,0
2019-02-24T05:30:38.381Z,0
2019-02-24T05:31:38.319Z,0
2019-02-24T05:32:38.295Z,0
2019-02-24T05:33:38.273Z,0
2019-02-24T05:34:38.276Z,0
2019-02-24T05:35:38.231Z,0
2019-02-24T05:36:38.548Z,0
2019-02-24T05:37:38.184Z,0
2019-02-24T05:38:38.181Z,0
2019-02-24T05:39:38.157Z,0
2019-02-24T05:40:38.126Z,0
2019-02-24T05:41:38.092Z,0
2019-02-24T05:42:37.832Z,0
2019-02-24T05:43:38.115Z,0
2019-02-24T05:44:38.057Z,0
2019-02-24T05:45:37.784Z,0
2019-02-24T05:46:38.012Z,0
2019-02-24T05:47:37.971Z,0
2019-02-24T05:48:38.497Z,0
2019-02-24T05:49:37.950Z,0
2019-02-24T05:50:37.908Z,0
2019-02-24T05:51:37.978Z,0
2019-02-24T05:52:37.855Z,0
2019-02-24T05:53:37.847Z,0
2019-02-24T05:54:37.815Z,0
2019-02-24T05:55:37.803Z,0
2019-02-24T05:56:37.776Z,0
2019-02-24T05:57:37.783Z,0
2019-02-24T05:58:37.736Z,0
2019-02-24T05:59:37.701Z,0
2019-02-24T06:00:37.679Z,0
2019-02-24T06:01:37.661Z,0
2019-02-24T06:02:37.654Z,0
2019-02-24T06:03:37.628Z,0
2019-02-24T06:04:37.597Z,0
2019-02-24T06:05:37.560Z,0
2019-02-24T06:06:37.606Z,0
2019-02-24T06:07:38.038Z,0
2019-02-24T06:08:37.511Z,0
2019-02-24T06:09:37.480Z,0
2019-02-24T06:10:37.482Z,0
2019-02-24T06:11:37.435Z,0
2019-02-24T06:12:37.484Z,0
2019-02-24T06:13:37.399Z,4
2019-02-24T06:14:37.378Z,4
2019-02-24T06:15:37.353Z,4
2019-02-24T06:16:37.387Z,0
2019-02-24T06:17:37.313Z,4
2019-02-24T06:18:37.290Z,4
2019-02-24T06:19:37.275Z,4
2019-02-24T06:20:38.082Z,4
2019-02-24T06:21:37.232Z,4
2019-02-24T06:22:37.202Z,8
2019-02-24T06:23:37.182Z,4
2019-02-24T06:24:37.195Z,4
2019-02-24T06:25:37.127Z,8
2019-02-24T06:26:37.384Z,8
2019-02-24T06:27:37.092Z,8
2019-02-24T06:28:37.084Z,8
2019-02-24T06:29:37.035Z,12
2019-02-24T06:30:37.023Z,12
2019-02-24T06:31:36.998Z,12
2019-02-24T06:32:36.991Z,16
2019-02-24T06:33:36.972Z,16
2019-02-24T06:34:36.927Z,16
2019-02-24T06:35:38.437Z,16
2019-02-24T06:36:36.892Z,20
2019-02-24T06:37:36.892Z,20
2019-02-24T06:38:36.838Z,24
2019-02-24T06:39:36.840Z,20
2019-02-24T06:40:36.798Z,24
2019-02-24T06:41:36.792Z,28
2019-02-24T06:42:36.765Z,28
2019-02-24T06:43:36.747Z,28
2019-02-24T06:44:36.708Z,32
2019-02-24T06:45:36.707Z,32
2019-02-24T06:46:36.667Z,36
2019-02-24T06:47:36.659Z,36
2019-02-24T06:48:36.654Z,36
2019-02-24T06:49:36.604Z,36
2019-02-24T06:50:42.700Z,40
2019-02-24T06:51:36.565Z,40
2019-02-24T06:52:36.548Z,44
2019-02-24T06:53:36.506Z,48
2019-02-24T06:54:36.498Z,48
2019-02-24T06:55:36.470Z,52
2019-02-24T06:56:36.215Z,52
2019-02-24T06:57:36.413Z,48
2019-02-24T06:58:36.422Z,52
2019-02-24T06:59:36.519Z,56
2019-02-24T07:00:36.371Z,56
2019-02-24T07:01:36.325Z,56
2019-02-24T07:02:36.311Z,60
2019-02-24T07:03:36.296Z,60
2019-02-24T07:04:36.328Z,60
2019-02-24T07:05:36.248Z,64
2019-02-24T07:06:36.218Z,64
2019-02-24T07:07:36.210Z,68
2019-02-24T07:08:36.187Z,64
2019-02-24T07:09:36.205Z,68
2019-02-24T07:10:36.132Z,72
2019-02-24T07:11:36.125Z,68
2019-02-24T07:12:36.090Z,72
2019-02-24T07:13:36.099Z,72
2019-02-24T07:14:36.141Z,76
2019-02-24T07:15:36.027Z,72
2019-02-24T07:16:35.780Z,76
2019-02-24T07:17:36.078Z,76
2019-02-24T07:18:36.056Z,76
2019-02-24T07:19:37.685Z,80
2019-02-24T07:20:35.908Z,80
2019-02-24T07:21:35.897Z,84
2019-02-24T07:22:35.634Z,80
2019-02-24T07:23:35.848Z,84
2019-02-24T07:24:35.828Z,84
2019-02-24T07:25:35.809Z,84
2019-02-24T07:26:35.794Z,84
2019-02-24T07:27:35.764Z,88
2019-02-24T07:28:35.956Z,88
2019-02-24T07:29:36.030Z,88
2019-02-24T07:30:35.822Z,88
2019-02-24T07:31:35.673Z,92
2019-02-24T07:32:35.657Z,92
2019-02-24T07:33:35.386Z,92
2019-02-24T07:34:35.619Z,92
2019-02-24T07:35:35.632Z,96
2019-02-24T07:36:35.579Z,92
2019-02-24T07:37:35.544Z,96
2019-02-24T07:38:35.516Z,96
2019-02-24T07:39:35.497Z,100
2019-02-24T07:40:35.483Z,96
2019-02-24T07:41:35.463Z,100
2019-02-24T07:42:35.437Z,100
2019-02-24T07:43:35.434Z,100
2019-02-24T07:44:35.377Z,104
2019-02-24T07:45:35.375Z,104
2019-02-24T07:46:35.344Z,104
2019-02-24T07:47:35.317Z,108
2019-02-24T07:48:35.293Z,108
2019-02-24T07:49:35.283Z,112
2019-02-24T07:50:35.256Z,108
2019-02-24T07:51:35.232Z,112
2019-02-24T07:52:35.205Z,112
2019-02-24T07:53:35.192Z,112
2019-02-24T07:54:35.172Z,112
2019-02-24T07:55:35.143Z,112
2019-02-24T07:56:35.124Z,112
2019-02-24T07:57:35.118Z,112
2019-02-24T07:58:35.099Z,112
2019-02-24T07:59:35.064Z,112
2019-02-24T08:00:39.583Z,112
2019-02-24T08:01:35.000Z,112
2019-02-24T08:02:35.021Z,116
2019-02-24T08:03:35.000Z,116
2019-02-24T08:04:34.973Z,116
2019-02-24T08:05:34.931Z,116
2019-02-24T08:06:34.911Z,116
2019-02-24T08:07:34.880Z,120
2019-02-24T08:08:34.851Z,120
2019-02-24T08:09:34.833Z,120
2019-02-24T08:10:34.818Z,120
2019-02-24T08:11:34.791Z,124
2019-02-24T08:12:34.768Z,120
2019-02-24T08:13:34.735Z,124
2019-02-24T08:14:34.740Z,124
2019-02-24T08:15:34.706Z,124
2019-02-24T08:16:34.450Z,124
2019-02-24T08:17:34.653Z,128
2019-02-24T08:18:34.646Z,124
2019-02-24T08:19:34.867Z,128
2019-02-24T08:20:35.851Z,128
2019-02-24T08:21:34.570Z,128
2019-02-24T08:22:34.546Z,132
2019-02-24T08:23:34.522Z,128
2019-02-24T08:24:36.270Z,132
2019-02-24T08:25:34.478Z,132
2019-02-24T08:26:34.447Z,132
2019-02-24T08:27:34.436Z,132
2019-02-24T08:28:34.412Z,136
2019-02-24T08:29:34.406Z,136
2019-02-24T08:30:43.577Z,140
2019-02-24T08:31:34.348Z,136
2019-02-24T08:32:34.321Z,140
2019-02-24T08:33:34.366Z,140
2019-02-24T08:34:34.273Z,144
2019-02-24T08:35:34.256Z,156
2019-02-24T08:36:34.234Z,184
2019-02-24T08:37:34.230Z,248
2019-02-24T08:38:34.195Z,328
2019-02-24T08:39:34.204Z,356
2019-02-24T08:40:34.150Z,344
2019-02-24T08:41:34.163Z,316
2019-02-24T08:42:34.119Z,288
2019-02-24T08:43:34.082Z,264
2019-02-24T08:44:33.818Z,244
2019-02-24T08:45:34.024Z,252
2019-02-24T08:46:34.029Z,272
2019-02-24T08:47:33.988Z,280
2019-02-24T08:48:33.980Z,280
2019-02-24T08:49:33.942Z,284
2019-02-24T08:50:33.707Z,312
2019-02-24T08:51:33.903Z,352
2019-02-24T08:52:33.890Z,372
2019-02-24T08:53:33.866Z,392
2019-02-24T08:54:33.841Z,408
2019-02-24T08:55:33.818Z,428
2019-02-24T08:56:33.804Z,436
2019-02-24T08:57:33.779Z,408
2019-02-24T08:58:33.744Z,384
2019-02-24T08:59:33.754Z,348
2019-02-24T09:00:33.703Z,332
2019-02-24T09:01:33.697Z,320
2019-02-24T09:02:33.697Z,304
2019-02-24T09:03:33.640Z,292
2019-02-24T09:04:33.612Z,284
2019-02-24T09:05:34.036Z,280
2019-02-24T09:06:33.566Z,280
2019-02-24T09:07:33.556Z,268
2019-02-24T09:08:33.524Z,248
2019-02-24T09:09:33.516Z,256
2019-02-24T09:10:33.485Z,272
2019-02-24T09:11:33.462Z,264
2019-02-24T09:12:33.433Z,260
2019-02-24T09:13:33.414Z,264
2019-02-24T09:14:33.400Z,276
2019-02-24T09:15:33.376Z,268
2019-02-24T09:16:33.357Z,264
2019-02-24T09:17:33.457Z,264
2019-02-24T09:18:33.315Z,268
2019-02-24T09:19:33.290Z,280
2019-02-24T09:20:33.289Z,296
2019-02-24T09:21:33.240Z,308
2019-02-24T09:22:33.240Z,324
2019-02-24T09:23:33.237Z,308
2019-02-24T09:24:33.184Z,304
2019-02-24T09:25:33.147Z,312
2019-02-24T09:26:33.127Z,304
2019-02-24T09:27:33.109Z,296
2019-02-24T09:28:33.106Z,304
2019-02-24T09:29:33.080Z,312
2019-02-24T09:30:33.059Z,316
2019-02-24T09:31:33.055Z,316
2019-02-24T09:32:33.001Z,308
2019-02-24T09:33:32.987Z,296
2019-02-24T09:34:32.959Z,276
2019-02-24T09:35:32.966Z,264
2019-02-24T09:36:32.912Z,256
2019-02-24T09:37:32.908Z,256
2019-02-24T09:38:32.862Z,252
2019-02-24T09:39:32.854Z,252
2019-02-24T09:40:32.817Z,252
2019-02-24T09:41:32.815Z,260
2019-02-24T09:42:32.778Z,264
2019-02-24T09:43:32.753Z,264
2019-02-24T09:44:32.727Z,260
2019-02-24T09:45:32.716Z,256
2019-02-24T09:46:33.048Z,264
2019-02-24T09:47:32.673Z,268
2019-02-24T09:48:32.672Z,264
2019-02-24T09:49:32.635Z,264
2019-02-24T09:50:32.589Z,264
2019-02-24T09:51:32.581Z,272
2019-02-24T09:52:32.551Z,272
2019-02-24T09:53:32.548Z,280
2019-02-24T09:54:32.501Z,292
2019-02-24T09:55:32.495Z,304
2019-02-24T09:56:32.489Z,312
2019-02-24T09:57:32.458Z,320
2019-02-24T09:58:32.458Z,328
2019-02-24T09:59:32.405Z,348
2019-02-24T10:00:32.406Z,380
2019-02-24T10:01:32.355Z,392
2019-02-24T10:02:32.447Z,392
2019-02-24T10:03:32.347Z,404
2019-02-24T10:04:32.290Z,420
2019-02-24T10:05:32.363Z,440
2019-02-24T10:06:32.284Z,496
2019-02-24T10:07:32.222Z,532
2019-02-24T10:08:32.273Z,556
2019-02-24T10:09:32.166Z,604
2019-02-24T10:10:32.168Z,708
2019-02-24T10:11:32.142Z,752
2019-02-24T10:12:32.122Z,764
2019-02-24T10:13:31.845Z,788
2019-02-24T10:14:32.082Z,820
2019-02-24T10:15:32.202Z,828
2019-02-24T10:16:32.037Z,860
2019-02-24T10:17:33.315Z,880
2019-02-24T10:18:32.011Z,928
2019-02-24T10:19:33.646Z,984
2019-02-24T10:20:31.949Z,1004
2019-02-24T10:21:31.924Z,984
2019-02-24T10:22:31.889Z,984
2019-02-24T10:23:31.972Z,996
2019-02-24T10:24:31.848Z,992
2019-02-24T10:25:31.842Z,1000
2019-02-24T10:26:31.825Z,1048
2019-02-24T10:27:31.802Z,1108
2019-02-24T10:28:31.754Z,1148
2019-02-24T10:29:31.777Z,1164
2019-02-24T10:30:31.719Z,1184
2019-02-24T10:31:31.718Z,1212
2019-02-24T10:32:31.689Z,1240
2019-02-24T10:33:31.653Z,1268
2019-02-24T10:34:31.654Z,1264
2019-02-24T10:35:31.622Z,1252
2019-02-24T10:36:31.683Z,1220
2019-02-24T10:37:31.624Z,1176
2019-02-24T10:38:31.549Z,1156
2019-02-24T10:39:36.935Z,1164
2019-02-24T10:40:31.286Z,1192
2019-02-24T10:41:31.471Z,1252
2019-02-24T10:42:31.491Z,1308
2019-02-24T10:43:31.436Z,1348
2019-02-24T10:44:31.425Z,1380
2019-02-24T10:45:31.377Z,1392
2019-02-24T10:46:31.377Z,1420
2019-02-24T10:47:31.115Z,1436
2019-02-24T10:48:31.331Z,1448
2019-02-24T10:49:31.300Z,1464
2019-02-24T10:50:31.275Z,1456
2019-02-24T10:51:32.594Z,1444
2019-02-24T10:52:33.123Z,1428
2019-02-24T10:53:32.999Z,1404
2019-02-24T10:54:31.211Z,1388
2019-02-24T10:55:31.182Z,1380
2019-02-24T10:56:31.147Z,1368
2019-02-24T10:57:31.150Z,1348
2019-02-24T10:58:39.485Z,1324
2019-02-24T10:59:31.107Z,1284
2019-02-24T11:00:31.062Z,1228
2019-02-24T11:01:36.890Z,1164
2019-02-24T11:02:31.092Z,1128
2019-02-24T11:03:31.038Z,1096
2019-02-24T11:04:30.992Z,1096
2019-02-24T11:05:30.967Z,1124
2019-02-24T11:06:30.966Z,1072
2019-02-24T11:07:30.912Z,968
2019-02-24T11:08:30.904Z,920
2019-02-24T11:09:30.873Z,992
2019-02-24T11:10:30.852Z,1144
2019-02-24T11:11:31.040Z,1124
2019-02-24T11:12:31.247Z,1004
2019-02-24T11:13:30.993Z,860
2019-02-24T11:14:30.788Z,756
2019-02-24T11:15:30.755Z,680
2019-02-24T11:16:32.174Z,612
2019-02-24T11:17:30.715Z,544
2019-02-24T11:18:30.697Z,496
2019-02-24T11:19:30.416Z,468
2019-02-24T11:20:30.634Z,452
2019-02-24T11:21:30.663Z,444
2019-02-24T11:22:30.577Z,444
2019-02-24T11:23:30.574Z,440
2019-02-24T11:24:30.559Z,436
2019-02-24T11:25:31.850Z,432
2019-02-24T11:26:30.510Z,428
2019-02-24T11:27:30.484Z,420
2019-02-24T11:28:30.461Z,416
2019-02-24T11:29:30.458Z,412
2019-02-24T11:30:30.431Z,412
2019-02-24T11:31:38.099Z,404
2019-02-24T11:32:30.367Z,400
2019-02-24T11:33:30.375Z,392
2019-02-24T11:34:30.329Z,392
2019-02-24T11:35:30.306Z,392
2019-02-24T11:36:30.282Z,388
2019-02-24T11:37:30.266Z,384
2019-02-24T11:38:30.247Z,384
2019-02-24T11:39:30.231Z,384
2019-02-24T11:40:30.207Z,380
2019-02-24T11:41:30.259Z,376
2019-02-24T11:42:29.931Z,372
2019-02-24T11:43:30.136Z,364
2019-02-24T11:44:30.134Z,356
2019-02-24T11:45:30.079Z,352
2019-02-24T11:46:30.082Z,352
2019-02-24T11:47:30.048Z,348
2019-02-24T11:48:30.040Z,344
2019-02-24T11:49:31.204Z,344
2019-02-24T11:50:29.988Z,344
2019-02-24T11:51:29.965Z,344
2019-02-24T11:52:29.944Z,344
2019-02-24T11:53:29.946Z,344
2019-02-24T11:54:29.900Z,344
2019-02-24T11:55:29.883Z,348
2019-02-24T11:56:29.869Z,344
2019-02-24T11:57:29.866Z,344
2019-02-24T11:58:29.803Z,344
2019-02-24T11:59:29.792Z,344
2019-02-24T12:00:29.765Z,340
2019-02-24T12:01:29.762Z,344
2019-02-24T12:02:38.902Z,344
2019-02-24T12:03:29.709Z,344
2019-02-24T12:04:29.684Z,340
2019-02-24T12:05:29.672Z,344
2019-02-24T12:06:29.637Z,340
2019-02-24T12:07:29.618Z,344
2019-02-24T12:08:29.595Z,344
2019-02-24T12:09:29.574Z,340
2019-02-24T12:10:29.563Z,344
2019-02-24T12:11:29.535Z,348
2019-02-24T12:12:29.512Z,344
2019-02-24T12:13:29.501Z,348
2019-02-24T12:14:29.477Z,348
2019-02-24T12:15:29.451Z,352
2019-02-24T12:16:29.436Z,356
2019-02-24T12:17:29.397Z,356
2019-02-24T12:18:29.395Z,360
2019-02-24T12:19:29.366Z,360
2019-02-24T12:20:29.425Z,364
2019-02-24T12:21:29.307Z,364
2019-02-24T12:22:29.293Z,368
2019-02-24T12:23:29.277Z,368
2019-02-24T12:24:29.268Z,368
2019-02-24T12:25:29.229Z,372
2019-02-24T12:26:29.207Z,372
2019-02-24T12:27:29.196Z,372
2019-02-24T12:28:29.171Z,372
2019-02-24T12:29:28.967Z,372
2019-02-24T12:30:29.111Z,376
2019-02-24T12:31:29.107Z,376
2019-02-24T12:32:29.094Z,376
2019-02-24T12:33:29.073Z,376
2019-02-24T12:34:29.044Z,376
2019-02-24T12:35:29.086Z,380
2019-02-24T12:36:28.984Z,376
2019-02-24T12:37:28.987Z,380
2019-02-24T12:38:28.975Z,376
2019-02-24T12:39:28.931Z,380
2019-02-24T12:40:28.901Z,380
2019-02-24T12:41:28.896Z,380
2019-02-24T12:42:28.879Z,380
2019-02-24T12:43:28.843Z,384
2019-02-24T12:44:28.823Z,384
2019-02-24T12:45:28.794Z,380
2019-02-24T12:46:28.789Z,380
2019-02-24T12:47:28.761Z,384
2019-02-24T12:48:28.751Z,384
2019-02-24T12:49:28.709Z,384
2019-02-24T12:50:28.706Z,388
2019-02-24T12:51:28.675Z,388
2019-02-24T12:52:28.688Z,388
2019-02-24T12:53:29.977Z,392
2019-02-24T12:54:28.615Z,396
2019-02-24T12:55:28.585Z,396
2019-02-24T12:56:28.573Z,396
2019-02-24T12:57:28.542Z,400
2019-02-24T12:58:28.517Z,396
2019-02-24T12:59:28.533Z,396
2019-02-24T13:00:28.479Z,396
2019-02-24T13:01:28.470Z,396
2019-02-24T13:02:28.436Z,400
2019-02-24T13:03:31.290Z,392
2019-02-24T13:04:28.950Z,396
2019-02-24T13:05:28.384Z,392
2019-02-24T13:06:28.125Z,392
2019-02-24T13:07:28.327Z,392
2019-02-24T13:08:28.303Z,388
2019-02-24T13:09:28.307Z,384
2019-02-24T13:10:28.263Z,384
2019-02-24T13:11:28.277Z,384
2019-02-24T13:12:28.275Z,388
2019-02-24T13:13:28.197Z,400
2019-02-24T13:14:27.932Z,412
2019-02-24T13:15:28.159Z,412
2019-02-24T13:16:28.127Z,432
2019-02-24T13:17:28.126Z,444
2019-02-24T13:18:28.126Z,464
2019-02-24T13:19:28.074Z,492
2019-02-24T13:20:28.061Z,492
2019-02-24T13:21:28.039Z,492
2019-02-24T13:22:27.994Z,504
2019-02-24T13:23:27.981Z,512
2019-02-24T13:24:27.960Z,512
2019-02-24T13:25:27.967Z,512
2019-02-24T13:26:27.919Z,504
2019-02-24T13:27:27.895Z,484
2019-02-24T13:28:27.871Z,476
2019-02-24T13:29:27.896Z,476
2019-02-24T13:30:27.881Z,460
2019-02-24T13:31:27.808Z,436
2019-02-24T13:32:27.789Z,416
2019-02-24T13:33:27.522Z,412
2019-02-24T13:34:27.783Z,424
2019-02-24T13:35:27.725Z,436
2019-02-24T13:36:27.713Z,436
2019-02-24T13:37:27.668Z,416
2019-02-24T13:38:27.676Z,412
2019-02-24T13:39:27.644Z,416
2019-02-24T13:40:27.620Z,416
2019-02-24T13:41:27.595Z,412
2019-02-24T13:42:27.570Z,408
2019-02-24T13:43:27.554Z,408
2019-02-24T13:44:27.577Z,400
2019-02-24T13:45:29.323Z,396
2019-02-24T13:46:27.475Z,396
2019-02-24T13:47:27.498Z,404
2019-02-24T13:48:27.445Z,408
2019-02-24T13:49:27.446Z,412
2019-02-24T13:50:27.396Z,416
2019-02-24T13:51:27.380Z,412
2019-02-24T13:52:27.363Z,404
2019-02-24T13:53:27.345Z,408
2019-02-24T13:54:27.312Z,404
2019-02-24T13:55:27.394Z,404
2019-02-24T13:56:27.263Z,404
2019-02-24T13:57:27.261Z,404
2019-02-24T13:58:27.234Z,400
2019-02-24T13:59:27.224Z,404
2019-02-24T14:00:27.174Z,404
2019-02-24T14:01:27.169Z,404
2019-02-24T14:02:31.386Z,408
2019-02-24T14:03:27.126Z,404
2019-02-24T14:04:27.098Z,408
2019-02-24T14:05:27.247Z,408
2019-02-24T14:06:27.569Z,408
2019-02-24T14:07:27.040Z,408
2019-02-24T14:08:27.726Z,408
2019-02-24T14:09:26.981Z,408
2019-02-24T14:10:26.996Z,408
2019-02-24T14:11:26.958Z,412
2019-02-24T14:12:26.956Z,412
2019-02-24T14:13:26.890Z,416